createdAt,value
2017-10-17T00:01:44.399Z,7.50
2017-10-17T00:04:13.448Z,8.23
2017-10-17T00:06:42.486Z,8.77
2017-10-17T00:09:11.558Z,9.37
2017-10-17T00:11:40.657Z,8.77
2017-10-17T00:14:09.740Z,8.50
2017-10-17T00:16:38.767Z,7.30
2017-10-17T00:19:07.798Z,6.90
2017-10-17T00:21:36.834Z,7.13
2017-10-17T00:24:05.874Z,7.03
2017-10-17T00:26:34.911Z,6.73
2017-10-17T00:29:03.943Z,6.60
2017-10-17T00:31:33.028Z,6.30
2017-10-17T00:34:02.095Z,6.40
2017-10-17T00:36:31.137Z,7.80
2017-10-17T00:39:05.765Z,7.03
2017-10-17T00:41:34.830Z,6.47
2017-10-17T00:44:03.854Z,6.90
2017-10-17T00:46:32.961Z,6.90
2017-10-17T00:49:02.005Z,6.87
2017-10-17T00:51:31.040Z,6.70
2017-10-17T00:54:02.822Z,7.37
2017-10-17T00:56:31.848Z,6.90
2017-10-17T00:59:00.890Z,7.90
2017-10-17T01:01:29.927Z,7.77
2017-10-17T01:03:58.986Z,7.50
2017-10-17T01:06:28.841Z,6.50
2017-10-17T01:08:57.859Z,6.73
2017-10-17T01:11:26.891Z,6.20
2017-10-17T01:13:55.926Z,5.97
2017-10-17T01:16:25.534Z,5.57
2017-10-17T01:18:54.571Z,5.53
2017-10-17T01:21:26.281Z,6.60
2017-10-17T01:23:59.757Z,6.30
2017-10-17T01:26:29.289Z,6.03
2017-10-17T01:29:01.659Z,6.83
2017-10-17T01:31:30.723Z,6.73
2017-10-17T01:33:59.812Z,6.43
2017-10-17T01:36:28.866Z,7.07
2017-10-17T01:39:06.057Z,7.70
2017-10-17T01:41:35.530Z,7.23
2017-10-17T01:44:13.334Z,7.83
2017-10-17T01:46:48.941Z,7.53
2017-10-17T01:52:15.164Z,9.32
2017-10-17T01:54:52.776Z,9.70
2017-10-17T01:57:21.979Z,7.33
2017-10-17T02:00:08.650Z,6.47
2017-10-17T02:02:40.619Z,6.40
2017-10-17T02:05:09.666Z,7.60
2017-10-17T02:07:38.700Z,6.30
2017-10-17T02:10:24.919Z,5.90
2017-10-17T02:12:58.599Z,5.10
2017-10-17T02:15:27.658Z,6.50
2017-10-17T02:18:07.214Z,7.80
2017-10-17T02:20:37.473Z,7.20
2017-10-17T02:23:06.510Z,6.63
2017-10-17T02:28:58.802Z,7.40
2017-10-17T02:31:28.573Z,7.27
2017-10-17T02:34:00.968Z,6.30
2017-10-17T02:36:30.115Z,6.60
2017-10-17T02:38:59.170Z,5.70
2017-10-17T02:41:28.197Z,6.80
2017-10-17T02:43:57.932Z,6.33
2017-10-17T02:46:27.750Z,6.80
2017-10-17T02:49:07.112Z,7.53
2017-10-17T02:51:36.216Z,7.90
2017-10-17T02:54:05.546Z,7.10
2017-10-17T02:56:34.713Z,7.43
2017-10-17T02:59:04.529Z,9.27
2017-10-17T03:01:52.994Z,9.70
2017-10-17T03:04:33.917Z,9.00
2017-10-17T03:07:03.014Z,9.07
2017-10-17T03:09:32.068Z,8.13
2017-10-17T03:12:01.122Z,10.23
2017-10-17T03:14:34.559Z,8.57
2017-10-17T03:17:03.603Z,7.33
2017-10-17T03:19:33.025Z,6.73
2017-10-17T03:22:04.714Z,7.63
2017-10-17T03:24:42.597Z,6.60
2017-10-17T03:27:11.707Z,6.73
2017-10-17T03:29:41.069Z,6.30
2017-10-17T03:32:10.068Z,6.50
2017-10-17T03:34:52.668Z,6.57
2017-10-17T03:37:36.241Z,7.50
2017-10-17T03:40:14.971Z,6.47
2017-10-17T03:45:47.353Z,9.90
2017-10-17T03:48:17.431Z,9.10
2017-10-17T03:50:46.824Z,7.67
2017-10-17T03:56:27.042Z,8.10
2017-10-17T03:59:03.463Z,9.83
2017-10-17T04:01:32.515Z,7.97
2017-10-17T04:04:05.004Z,6.60
2017-10-17T04:06:58.371Z,6.90
2017-10-17T04:09:27.436Z,7.63
2017-10-17T04:11:56.487Z,7.93
2017-10-17T04:14:33.981Z,7.50
2017-10-17T04:23:26.230Z,16.05
2017-10-17T04:26:04.502Z,8.10
2017-10-17T04:31:48.083Z,6.32
2017-10-17T04:34:24.333Z,6.00
2017-10-17T04:39:48.758Z,7.62
2017-10-17T04:45:48.782Z,6.50
2017-10-17T04:54:51.572Z,10.68
2017-10-17T04:57:27.186Z,8.93
2017-10-17T05:00:09.710Z,9.17
2017-10-17T05:02:46.975Z,9.17
2017-10-17T05:05:28.942Z,8.40
2017-10-17T05:11:08.490Z,9.02
2017-10-17T05:13:51.877Z,7.93
2017-10-17T05:19:37.766Z,8.43
2017-10-17T05:22:15.905Z,6.33
2017-10-17T05:24:49.813Z,5.40
2017-10-17T05:27:35.410Z,6.10
2017-10-17T05:33:08.734Z,6.75
2017-10-17T05:35:37.782Z,6.17
2017-10-17T05:38:06.866Z,6.67
2017-10-17T05:40:35.894Z,5.80
2017-10-17T05:43:04.970Z,6.20
2017-10-17T05:45:34.981Z,6.37
2017-10-17T05:48:06.507Z,5.63
2017-10-17T05:50:43.963Z,6.73
2017-10-17T05:53:12.994Z,5.13
2017-10-17T05:55:42.134Z,5.63
2017-10-17T05:58:11.185Z,4.90
2017-10-17T06:00:40.237Z,4.87
2017-10-17T06:03:09.311Z,4.97
2017-10-17T06:05:38.364Z,7.07
2017-10-17T06:08:07.422Z,6.47
2017-10-17T06:10:36.467Z,5.90
2017-10-17T06:13:05.522Z,5.10
2017-10-17T06:15:34.591Z,7.67
2017-10-17T06:18:03.627Z,7.13
2017-10-17T06:20:32.676Z,5.63
2017-10-17T06:23:01.707Z,6.40
2017-10-17T06:25:30.770Z,6.83
2017-10-17T06:27:59.786Z,6.43
2017-10-17T06:30:28.834Z,6.20
2017-10-17T06:32:57.869Z,6.97
2017-10-17T06:35:26.931Z,6.93
2017-10-17T06:37:55.966Z,5.77
2017-10-17T06:40:25.003Z,5.93
2017-10-17T06:42:54.035Z,5.87
2017-10-17T06:45:23.139Z,4.97
2017-10-17T06:47:52.153Z,5.40
2017-10-17T06:50:21.203Z,5.57
2017-10-17T06:52:50.236Z,6.67
2017-10-17T06:55:19.291Z,6.20
2017-10-17T06:57:48.344Z,7.60
2017-10-17T07:00:17.395Z,7.17
2017-10-17T07:02:46.441Z,5.90
2017-10-17T07:05:20.460Z,4.50
2017-10-17T07:07:49.791Z,5.03
2017-10-17T07:10:19.855Z,5.17
2017-10-17T07:12:48.990Z,4.57
2017-10-17T07:15:18.044Z,5.43
2017-10-17T07:17:47.077Z,5.00
2017-10-17T07:20:16.128Z,5.03
2017-10-17T07:22:45.179Z,4.67
2017-10-17T07:25:14.420Z,5.20
2017-10-17T07:27:44.445Z,5.40
2017-10-17T07:30:14.547Z,5.53
2017-10-17T07:32:43.768Z,5.40
2017-10-17T07:35:12.820Z,4.97
2017-10-17T07:37:41.864Z,4.13
2017-10-17T07:40:10.915Z,4.10
2017-10-17T07:42:39.986Z,4.50
2017-10-17T07:45:09.047Z,5.60
2017-10-17T07:47:38.090Z,4.70
2017-10-17T07:50:07.163Z,4.33
2017-10-17T07:52:36.211Z,3.70
2017-10-17T07:55:05.259Z,3.53
2017-10-17T07:57:34.309Z,4.10
2017-10-17T08:00:03.367Z,3.43
2017-10-17T08:02:32.415Z,3.63
2017-10-17T08:05:01.468Z,3.03
2017-10-17T08:07:30.503Z,3.40
2017-10-17T08:09:59.557Z,3.63
2017-10-17T08:12:28.602Z,3.57
2017-10-17T08:14:57.681Z,2.33
2017-10-17T08:17:26.706Z,3.10
2017-10-17T08:19:55.753Z,2.50
2017-10-17T08:22:24.796Z,3.23
2017-10-17T08:24:53.855Z,3.37
2017-10-17T08:27:22.883Z,3.07
2017-10-17T08:29:51.932Z,3.13
2017-10-17T08:32:20.979Z,2.80
2017-10-17T08:34:50.033Z,2.83
2017-10-17T08:37:19.087Z,2.70
2017-10-17T08:39:48.134Z,2.60
2017-10-17T08:42:17.188Z,2.70
2017-10-17T08:44:47.145Z,3.10
2017-10-17T08:47:16.191Z,2.50
2017-10-17T08:49:45.262Z,2.30
2017-10-17T08:52:14.304Z,2.00
2017-10-17T08:54:43.352Z,2.57
2017-10-17T08:57:12.420Z,2.30
2017-10-17T08:59:41.474Z,2.70
2017-10-17T09:02:10.544Z,3.07
2017-10-17T09:04:39.582Z,2.53
2017-10-17T09:07:08.639Z,2.53
2017-10-17T09:09:37.733Z,2.10
2017-10-17T09:12:06.752Z,2.50
2017-10-17T09:14:35.802Z,2.10
2017-10-17T09:17:04.842Z,3.10
2017-10-17T09:19:33.895Z,2.53
2017-10-17T09:22:03.015Z,2.67
2017-10-17T09:24:32.086Z,2.40
2017-10-17T09:27:01.121Z,2.63
2017-10-17T09:29:30.159Z,2.97
2017-10-17T09:31:59.359Z,2.93
2017-10-17T09:34:28.399Z,2.70
2017-10-17T09:36:57.441Z,2.60
2017-10-17T09:39:26.494Z,2.50
2017-10-17T09:41:55.537Z,2.40
2017-10-17T09:44:24.578Z,2.07
2017-10-17T09:46:53.627Z,2.27
2017-10-17T09:49:22.663Z,2.77
2017-10-17T09:51:51.710Z,2.07
2017-10-17T09:54:20.754Z,2.57
2017-10-17T09:56:49.846Z,2.30
2017-10-17T09:59:18.904Z,2.30
2017-10-17T10:01:48.022Z,2.33
2017-10-17T10:04:17.097Z,2.00
2017-10-17T10:06:46.157Z,2.37
2017-10-17T10:09:15.256Z,2.73
2017-10-17T10:11:44.312Z,2.90
2017-10-17T10:14:13.399Z,2.60
2017-10-17T10:16:42.456Z,3.07
2017-10-17T10:19:11.485Z,2.27
2017-10-17T10:21:40.530Z,3.03
2017-10-17T10:24:09.575Z,2.80
2017-10-17T10:26:40.047Z,2.80
2017-10-17T10:29:09.093Z,2.97
2017-10-17T10:31:38.166Z,2.65
2017-10-17T10:34:07.214Z,2.90
2017-10-17T10:36:36.275Z,3.30
2017-10-17T10:39:05.312Z,2.60
2017-10-17T10:41:34.427Z,2.60
2017-10-17T10:44:03.472Z,2.45
2017-10-17T10:46:32.570Z,2.50
2017-10-17T10:49:01.633Z,2.87
2017-10-17T10:51:30.695Z,2.50
2017-10-17T10:53:59.752Z,2.35
2017-10-17T10:56:28.799Z,2.75
2017-10-17T10:58:57.834Z,3.10
2017-10-17T11:01:26.898Z,2.35
2017-10-17T11:03:55.941Z,2.67
2017-10-17T11:06:24.994Z,2.80
2017-10-17T11:08:54.049Z,2.80
2017-10-17T11:11:23.270Z,2.40
2017-10-17T11:13:52.331Z,2.70
2017-10-17T11:16:21.391Z,2.58
2017-10-17T11:18:50.437Z,2.78
2017-10-17T11:21:19.491Z,2.72
2017-10-17T11:23:48.557Z,2.67
2017-10-17T11:26:17.631Z,2.80
2017-10-17T11:28:46.675Z,2.92
2017-10-17T11:31:15.756Z,2.90
2017-10-17T11:33:44.804Z,2.20
2017-10-17T11:36:13.895Z,2.40
2017-10-17T11:38:43.022Z,2.65
2017-10-17T11:41:29.735Z,2.60
2017-10-17T11:43:58.812Z,2.12
2017-10-17T11:46:27.849Z,2.20
2017-10-17T11:48:56.931Z,2.28
2017-10-17T11:51:25.963Z,2.60
2017-10-17T11:53:55.273Z,2.47
2017-10-17T11:56:24.315Z,2.67
2017-10-17T11:58:53.477Z,2.90
2017-10-17T12:01:22.526Z,3.00
2017-10-17T12:03:51.570Z,2.58
2017-10-17T12:06:20.666Z,2.58
2017-10-17T12:08:49.714Z,2.50
2017-10-17T12:11:18.769Z,2.70
2017-10-17T12:13:47.822Z,2.97
2017-10-17T12:16:16.911Z,2.33
2017-10-17T12:18:46.293Z,2.87
2017-10-17T12:21:15.351Z,2.70
2017-10-17T12:23:44.403Z,2.83
2017-10-17T12:26:13.449Z,2.93
2017-10-17T12:28:42.504Z,2.77
2017-10-17T12:31:11.552Z,2.93
2017-10-17T12:33:47.608Z,2.63
2017-10-17T12:36:23.546Z,2.70
2017-10-17T12:38:59.650Z,2.60
2017-10-17T12:41:36.317Z,2.67
2017-10-17T12:44:05.878Z,2.80
2017-10-17T12:46:36.810Z,2.50
2017-10-17T12:49:05.864Z,2.87
2017-10-17T12:51:34.918Z,3.17
2017-10-17T12:54:03.999Z,2.70
2017-10-17T12:56:33.967Z,2.90
2017-10-17T12:59:03.007Z,3.10
2017-10-17T13:01:32.102Z,3.97
2017-10-17T13:04:01.131Z,3.77
2017-10-17T13:06:30.184Z,3.30
2017-10-17T13:08:59.227Z,3.57
2017-10-17T13:11:28.281Z,3.43
2017-10-17T13:13:57.348Z,3.50
2017-10-17T13:16:26.415Z,3.40
2017-10-17T13:18:55.499Z,3.93
2017-10-17T13:21:24.551Z,4.03
2017-10-17T13:23:53.607Z,4.20
2017-10-17T13:26:22.894Z,3.40
2017-10-17T13:28:51.948Z,4.00
2017-10-17T13:31:21.019Z,4.20
2017-10-17T13:33:51.298Z,4.63
2017-10-17T13:36:20.332Z,4.30
2017-10-17T13:38:49.411Z,4.83
2017-10-17T13:41:18.443Z,5.60
2017-10-17T13:43:47.500Z,5.10
2017-10-17T13:46:16.559Z,5.40
2017-10-17T13:48:45.611Z,4.60
2017-10-17T13:51:14.664Z,4.50
2017-10-17T13:53:43.734Z,5.10
2017-10-17T13:56:13.021Z,4.80
2017-10-17T13:58:42.061Z,4.50
2017-10-17T14:01:11.202Z,4.40
2017-10-17T14:03:40.262Z,5.50
2017-10-17T14:06:09.368Z,5.23
2017-10-17T14:08:38.458Z,5.63
2017-10-17T14:11:07.511Z,5.80
2017-10-17T14:13:36.572Z,5.40
2017-10-17T14:16:05.619Z,5.00
2017-10-17T14:18:34.666Z,4.57
2017-10-17T14:21:03.722Z,5.03
2017-10-17T14:23:32.771Z,4.53
2017-10-17T14:26:01.846Z,5.63
2017-10-17T14:28:31.836Z,4.87
2017-10-17T14:31:00.881Z,5.40
2017-10-17T14:33:29.963Z,4.73
2017-10-17T14:35:58.977Z,5.37
2017-10-17T14:38:28.043Z,5.37
2017-10-17T14:40:57.080Z,6.00
2017-10-17T14:43:26.560Z,5.37
2017-10-17T14:45:55.603Z,5.77
2017-10-17T14:48:25.659Z,5.40
2017-10-17T14:50:54.710Z,5.20
2017-10-17T14:53:23.756Z,5.10
2017-10-17T14:55:52.803Z,4.60
2017-10-17T14:58:21.845Z,4.90
2017-10-17T15:00:50.914Z,4.70
2017-10-17T15:03:20.971Z,6.23
2017-10-17T15:05:55.213Z,4.83
2017-10-17T15:08:24.532Z,5.20
2017-10-17T15:10:53.619Z,4.50
2017-10-17T15:13:22.693Z,4.93
2017-10-17T15:15:51.743Z,4.50
2017-10-17T15:18:21.771Z,5.07
2017-10-17T15:20:50.819Z,4.70
2017-10-17T15:23:19.912Z,5.30
2017-10-17T15:25:48.985Z,5.30
2017-10-17T15:28:18.022Z,5.13
2017-10-17T15:30:47.090Z,5.50
2017-10-17T15:33:16.139Z,4.47
2017-10-17T15:35:45.222Z,5.23
2017-10-17T15:38:14.263Z,4.60
2017-10-17T15:40:43.388Z,5.30
2017-10-17T15:43:12.412Z,4.43
2017-10-17T15:45:41.469Z,4.97
2017-10-17T15:48:10.511Z,4.60
2017-10-17T15:50:39.567Z,4.80
2017-10-17T15:53:08.619Z,5.60
2017-10-17T15:55:37.679Z,4.43
2017-10-17T15:58:06.840Z,4.87
2017-10-17T16:00:35.912Z,5.40
2017-10-17T16:03:04.965Z,5.97
2017-10-17T16:05:34.007Z,6.67
2017-10-17T16:08:03.034Z,5.77
2017-10-17T16:10:32.179Z,6.40
2017-10-17T16:13:01.227Z,6.30
2017-10-17T16:15:30.284Z,6.70
2017-10-17T16:17:59.323Z,6.07
2017-10-17T16:20:28.391Z,6.10
2017-10-17T16:22:57.433Z,6.23
2017-10-17T16:25:26.504Z,5.37
2017-10-17T16:27:55.542Z,5.80
2017-10-17T16:30:24.595Z,5.97
2017-10-17T16:32:53.817Z,6.73
2017-10-17T16:35:22.875Z,6.57
2017-10-17T16:37:51.931Z,6.20
2017-10-17T16:40:20.984Z,6.73
2017-10-17T16:42:50.062Z,7.13
2017-10-17T16:45:19.173Z,5.97
2017-10-17T16:50:10.212Z,6.13
2017-10-17T16:52:39.262Z,6.37
2017-10-17T16:55:08.325Z,5.67
2017-10-17T16:57:37.356Z,4.83
2017-10-17T17:00:06.403Z,5.30
2017-10-17T17:02:35.462Z,6.20
2017-10-17T17:05:04.511Z,5.73
2017-10-17T17:07:33.569Z,6.40
2017-10-17T17:10:02.633Z,6.27
2017-10-17T17:12:31.699Z,5.63
2017-10-17T17:15:00.764Z,6.10
2017-10-17T17:17:29.803Z,6.67
2017-10-17T17:19:58.852Z,6.10
2017-10-17T17:22:27.960Z,7.10
2017-10-17T17:24:57.064Z,6.47
2017-10-17T17:27:26.114Z,6.17
2017-10-17T17:29:55.173Z,6.47
2017-10-17T17:32:25.167Z,7.03
2017-10-17T17:34:54.349Z,7.37
2017-10-17T17:37:23.395Z,7.07
2017-10-17T17:39:52.491Z,6.50
2017-10-17T17:42:21.540Z,7.63
2017-10-17T17:44:51.482Z,6.50
2017-10-17T17:47:20.535Z,7.70
2017-10-17T17:49:49.723Z,7.10
2017-10-17T17:52:18.783Z,7.80
2017-10-17T17:54:47.842Z,8.10
2017-10-17T17:57:16.886Z,8.57
2017-10-17T17:59:45.949Z,7.40
2017-10-17T18:02:15.006Z,7.67
2017-10-17T18:04:44.074Z,7.03
2017-10-17T18:07:13.167Z,7.13
2017-10-17T18:09:42.229Z,7.07
2017-10-17T18:12:11.274Z,7.00
2017-10-17T18:14:40.331Z,6.67
2017-10-17T18:17:09.386Z,7.00
2017-10-17T18:19:38.441Z,6.53
2017-10-17T18:22:08.447Z,6.60
2017-10-17T18:24:37.508Z,5.63
2017-10-17T18:27:06.631Z,6.73
2017-10-17T18:29:35.716Z,6.70
2017-10-17T18:32:06.053Z,6.27
2017-10-17T18:34:35.194Z,6.00
2017-10-17T18:37:04.266Z,8.70
2017-10-17T18:39:33.302Z,8.33
2017-10-17T18:42:02.448Z,7.77
2017-10-17T18:44:31.560Z,7.43
2017-10-17T18:47:00.675Z,8.00
2017-10-17T18:49:29.728Z,7.33
2017-10-17T18:51:58.775Z,7.00
2017-10-17T18:54:27.819Z,7.80
2017-10-17T18:56:56.882Z,7.13
2017-10-17T18:59:26.099Z,6.00
2017-10-17T19:01:55.164Z,5.93
2017-10-17T19:04:24.221Z,6.07
2017-10-17T19:06:53.348Z,6.60
2017-10-17T19:09:22.531Z,6.43
2017-10-17T19:11:54.450Z,6.53
2017-10-17T19:14:23.921Z,5.90
2017-10-17T19:16:53.154Z,6.10
2017-10-17T19:19:22.220Z,6.50
2017-10-17T19:21:51.281Z,6.27
2017-10-17T19:24:20.335Z,6.73
2017-10-17T19:26:49.868Z,6.83
2017-10-17T19:29:19.017Z,7.30
2017-10-17T19:31:48.105Z,6.13
2017-10-17T19:34:17.192Z,9.00
2017-10-17T19:36:46.521Z,7.20
2017-10-17T19:39:15.578Z,6.30
2017-10-17T19:41:44.641Z,5.67
2017-10-17T19:44:13.723Z,6.00
2017-10-17T19:46:42.789Z,5.53
2017-10-17T19:49:11.835Z,5.97
2017-10-17T19:51:41.130Z,5.33
2017-10-17T19:54:10.223Z,6.20
2017-10-17T19:56:39.341Z,7.40
2017-10-17T19:59:08.518Z,6.97
2017-10-17T20:01:37.560Z,7.70
2017-10-17T20:04:07.559Z,6.80
2017-10-17T20:06:36.649Z,6.97
2017-10-17T20:09:06.356Z,6.80
2017-10-17T20:11:35.476Z,6.97
2017-10-17T20:14:05.071Z,6.87
2017-10-17T20:16:34.268Z,6.90
2017-10-17T20:19:05.253Z,7.40
2017-10-17T20:21:34.814Z,8.27
2017-10-17T20:24:03.968Z,6.60
2017-10-17T20:26:33.046Z,7.70
2017-10-17T20:29:02.220Z,7.33
2017-10-17T20:31:31.355Z,7.50
2017-10-17T20:34:00.462Z,7.40
2017-10-17T20:36:29.561Z,7.67
2017-10-17T20:38:58.615Z,7.50
2017-10-17T20:41:27.667Z,6.90
2017-10-17T20:43:57.034Z,7.97
2017-10-17T20:46:26.069Z,7.20
2017-10-17T20:48:56.146Z,7.40
2017-10-17T20:51:25.321Z,7.23
2017-10-17T20:53:54.594Z,7.20
2017-10-17T20:56:24.772Z,7.60
2017-10-17T20:58:53.834Z,7.70
2017-10-17T21:01:22.925Z,6.00
2017-10-17T21:03:52.292Z,7.10
2017-10-17T21:06:21.513Z,8.07
2017-10-17T21:08:50.603Z,6.60
2017-10-17T21:11:19.779Z,7.20
2017-10-17T21:13:49.169Z,7.37
2017-10-17T21:16:18.290Z,7.40
2017-10-17T21:18:47.584Z,6.67
2017-10-17T21:21:17.507Z,6.50
2017-10-17T21:23:46.589Z,6.20
2017-10-17T21:26:15.838Z,6.57
2017-10-17T21:28:45.015Z,6.67
2017-10-17T21:31:14.550Z,6.10
2017-10-17T21:33:44.755Z,6.80
2017-10-17T21:36:13.908Z,7.33
2017-10-17T21:38:42.955Z,6.73
2017-10-17T21:41:17.036Z,7.20
2017-10-17T21:43:52.001Z,7.70
2017-10-17T21:46:26.517Z,7.27
2017-10-17T21:48:55.822Z,7.70
2017-10-17T21:51:24.843Z,7.80
2017-10-17T21:53:53.889Z,7.73
2017-10-17T21:56:26.439Z,7.60
2017-10-17T21:58:55.628Z,7.73
2017-10-17T22:01:24.659Z,7.67
2017-10-17T22:03:53.799Z,7.33
2017-10-17T22:06:22.846Z,7.20
2017-10-17T22:08:51.882Z,7.33
2017-10-17T22:11:20.952Z,7.80
2017-10-17T22:13:49.984Z,8.77
2017-10-17T22:16:19.097Z,8.60
2017-10-17T22:18:48.126Z,7.37
2017-10-17T22:21:17.175Z,7.97
2017-10-17T22:23:46.214Z,7.30
2017-10-17T22:26:15.265Z,7.93
2017-10-17T22:28:44.294Z,7.73
2017-10-17T22:31:13.330Z,8.03
2017-10-17T22:33:42.388Z,8.50
2017-10-17T22:36:11.528Z,9.07
2017-10-17T22:38:40.536Z,7.80
2017-10-17T22:41:09.729Z,8.00
2017-10-17T22:43:38.759Z,8.37
2017-10-17T22:46:07.861Z,8.20
2017-10-17T22:48:36.898Z,7.40
2017-10-17T22:51:05.936Z,7.33
2017-10-17T22:53:34.980Z,8.07
2017-10-17T22:56:04.031Z,8.60
2017-10-17T22:58:33.070Z,6.70
2017-10-17T23:01:02.115Z,6.83
2017-10-17T23:03:31.155Z,7.03
2017-10-17T23:06:00.218Z,7.00
2017-10-17T23:08:29.252Z,7.33
2017-10-17T23:10:58.286Z,7.40
2017-10-17T23:13:27.354Z,7.60
2017-10-17T23:15:56.444Z,6.70
2017-10-17T23:18:43.224Z,7.27
2017-10-17T23:21:12.280Z,7.50
2017-10-17T23:23:41.679Z,7.93
2017-10-17T23:26:10.746Z,7.70
2017-10-17T23:28:39.778Z,7.00
2017-10-17T23:31:08.806Z,8.27
2017-10-17T23:33:37.887Z,7.33
2017-10-17T23:36:06.922Z,6.40
2017-10-17T23:38:35.955Z,6.87
2017-10-17T23:41:05.027Z,6.73
2017-10-17T23:43:34.051Z,7.10
2017-10-17T23:46:03.114Z,7.37
2017-10-17T23:48:32.175Z,7.40
2017-10-17T23:51:01.203Z,7.07
2017-10-17T23:53:30.245Z,8.20
2017-10-17T23:56:00.219Z,7.80
2017-10-17T23:58:29.254Z,8.50
